createdAt,value
2023-03-29T00:01:42.532Z,64.77
2023-03-29T00:04:14.099Z,64.82
2023-03-29T00:06:42.512Z,64.82
2023-03-29T00:09:10.760Z,64.95
2023-03-29T00:11:40.045Z,64.68
2023-03-29T00:14:08.319Z,64.54
2023-03-29T00:16:36.789Z,64.33
2023-03-29T00:19:05.099Z,64.22
2023-03-29T00:21:33.258Z,64.00
2023-03-29T00:24:01.589Z,64.04
2023-03-29T00:26:29.860Z,64.30
2023-03-29T00:28:58.487Z,64.35
2023-03-29T00:31:27.679Z,64.36
2023-03-29T00:33:55.908Z,64.52
2023-03-29T00:36:23.991Z,64.55
2023-03-29T00:38:52.569Z,64.28
2023-03-29T00:41:21.316Z,64.25
2023-03-29T00:43:53.341Z,64.45
2023-03-29T00:46:22.430Z,64.31
2023-03-29T00:48:52.736Z,64.17
2023-03-29T00:51:22.190Z,64.16
2023-03-29T00:53:52.371Z,64.04
2023-03-29T00:56:39.955Z,64.06
2023-03-29T00:59:22.909Z,63.79
2023-03-29T01:01:55.114Z,63.80
2023-03-29T01:04:29.678Z,63.87
2023-03-29T01:07:06.431Z,63.97
2023-03-29T01:09:38.234Z,63.92
2023-03-29T01:12:14.308Z,63.82
2023-03-29T01:14:46.269Z,63.91
2023-03-29T01:17:14.952Z,63.90
2023-03-29T01:19:50.300Z,63.73
2023-03-29T01:22:18.777Z,63.56
2023-03-29T01:24:55.841Z,63.42
2023-03-29T01:27:39.366Z,63.29
2023-03-29T01:30:20.975Z,63.28
2023-03-29T01:32:55.781Z,63.32
2023-03-29T01:35:44.911Z,63.05
2023-03-29T01:38:15.573Z,63.01
2023-03-29T01:40:43.856Z,63.04
2023-03-29T01:43:24.646Z,62.90
2023-03-29T01:46:08.232Z,62.76
2023-03-29T01:48:57.698Z,62.70
2023-03-29T01:51:53.881Z,62.91
2023-03-29T01:54:24.660Z,63.02
2023-03-29T01:56:53.171Z,63.02
2023-03-29T01:59:23.181Z,63.11
2023-03-29T02:01:53.846Z,62.97
2023-03-29T02:04:36.423Z,62.86
2023-03-29T02:07:06.180Z,62.90
2023-03-29T02:09:36.207Z,62.91
2023-03-29T02:12:06.143Z,62.79
2023-03-29T02:14:35.269Z,62.86
2023-03-29T02:17:14.805Z,62.75
2023-03-29T02:19:43.440Z,62.74
2023-03-29T02:22:11.505Z,62.84
2023-03-29T02:24:42.934Z,62.77
2023-03-29T02:27:11.005Z,62.78
2023-03-29T02:29:39.317Z,62.72
2023-03-29T02:32:16.850Z,62.57
2023-03-29T02:35:07.463Z,62.55
2023-03-29T02:37:36.484Z,62.66
2023-03-29T02:40:08.204Z,62.63
2023-03-29T02:42:37.541Z,62.53
2023-03-29T02:45:08.310Z,62.43
2023-03-29T02:47:42.656Z,62.39
2023-03-29T02:50:10.949Z,62.33
2023-03-29T02:52:43.302Z,62.27
2023-03-29T02:55:15.047Z,62.34
2023-03-29T02:57:45.640Z,62.27
2023-03-29T03:00:14.852Z,62.18
2023-03-29T03:02:44.437Z,62.22
2023-03-29T03:05:14.419Z,62.27
2023-03-29T03:07:43.834Z,62.38
2023-03-29T03:10:12.875Z,62.35
2023-03-29T03:12:47.927Z,62.33
2023-03-29T03:15:16.556Z,62.25
2023-03-29T03:17:44.777Z,62.43
2023-03-29T03:20:13.959Z,62.30
2023-03-29T03:22:48.971Z,62.16
2023-03-29T03:25:23.709Z,62.21
2023-03-29T03:27:53.691Z,62.20
2023-03-29T03:30:23.642Z,61.98
2023-03-29T03:33:21.266Z,61.69
2023-03-29T03:36:10.301Z,61.83
2023-03-29T03:38:45.475Z,61.71
2023-03-29T03:41:13.846Z,61.73
2023-03-29T03:43:48.747Z,61.83
2023-03-29T03:46:17.333Z,61.65
2023-03-29T03:48:46.403Z,61.65
2023-03-29T03:51:22.383Z,61.56
2023-03-29T03:53:51.130Z,61.56
2023-03-29T03:56:42.429Z,61.38
2023-03-29T03:59:33.692Z,61.45
2023-03-29T04:02:08.198Z,61.43
2023-03-29T04:04:39.481Z,61.34
2023-03-29T04:07:27.755Z,61.36
2023-03-29T04:10:09.332Z,61.06
2023-03-29T04:12:38.172Z,61.10
2023-03-29T04:15:07.691Z,61.22
2023-03-29T04:17:37.397Z,61.09
2023-03-29T04:20:35.375Z,61.06
2023-03-29T04:23:04.087Z,60.90
2023-03-29T04:25:32.577Z,60.82
2023-03-29T04:28:31.624Z,60.96
2023-03-29T04:31:12.429Z,60.75
2023-03-29T04:34:03.582Z,60.81
2023-03-29T04:36:33.786Z,60.71
2023-03-29T04:39:02.156Z,60.69
2023-03-29T04:41:32.749Z,60.83
2023-03-29T04:44:07.172Z,60.80
2023-03-29T04:46:37.896Z,60.59
2023-03-29T04:49:12.777Z,60.68
2023-03-29T04:51:44.170Z,60.76
2023-03-29T04:54:13.993Z,60.67
2023-03-29T04:56:56.922Z,60.61
2023-03-29T04:59:45.636Z,60.64
2023-03-29T05:02:24.240Z,60.66
2023-03-29T05:04:53.686Z,60.62
2023-03-29T05:07:29.890Z,60.67
2023-03-29T05:09:58.117Z,60.62
2023-03-29T05:12:26.321Z,60.63
2023-03-29T05:14:57.694Z,60.46
2023-03-29T05:17:27.545Z,60.57
2023-03-29T05:20:01.471Z,60.62
2023-03-29T05:22:31.671Z,60.58
2023-03-29T05:24:59.756Z,60.59
2023-03-29T05:27:30.001Z,60.53
2023-03-29T05:30:05.786Z,60.54
2023-03-29T05:33:10.601Z,60.36
2023-03-29T05:35:40.614Z,60.50
2023-03-29T05:38:09.613Z,60.45
2023-03-29T05:40:38.720Z,60.51
2023-03-29T05:43:27.555Z,60.52
2023-03-29T05:45:56.077Z,60.62
2023-03-29T05:48:25.039Z,60.64
2023-03-29T05:50:54.657Z,60.56
2023-03-29T05:53:25.096Z,60.61
2023-03-29T05:55:53.316Z,60.65
2023-03-29T05:58:23.122Z,60.76
2023-03-29T06:01:00.851Z,60.68
2023-03-29T06:03:53.635Z,60.37
2023-03-29T06:06:24.080Z,60.38
2023-03-29T06:08:52.641Z,60.52
2023-03-29T06:11:41.474Z,60.57
2023-03-29T06:14:29.148Z,60.52
2023-03-29T06:17:06.898Z,60.57
2023-03-29T06:19:35.056Z,60.57
2023-03-29T06:22:03.442Z,60.60
2023-03-29T06:24:36.713Z,60.80
2023-03-29T06:27:10.079Z,60.66
2023-03-29T06:29:38.647Z,60.51
2023-03-29T06:32:11.243Z,60.36
2023-03-29T06:34:50.014Z,60.01
2023-03-29T06:37:33.050Z,59.95
2023-03-29T06:40:13.488Z,60.19
2023-03-29T06:42:46.695Z,60.25
2023-03-29T06:45:36.404Z,60.21
2023-03-29T06:48:08.215Z,59.91
2023-03-29T06:50:39.897Z,60.00
2023-03-29T06:53:13.637Z,60.01
2023-03-29T06:55:42.642Z,59.98
2023-03-29T06:58:45.164Z,60.17
2023-03-29T07:01:28.718Z,60.21
2023-03-29T07:04:14.085Z,60.15
2023-03-29T07:07:20.733Z,60.05
2023-03-29T07:09:55.741Z,60.21
2023-03-29T07:13:02.136Z,59.98
2023-03-29T07:15:31.093Z,59.75
2023-03-29T07:18:33.980Z,59.57
2023-03-29T07:21:03.034Z,59.51
2023-03-29T07:23:31.982Z,59.20
2023-03-29T07:26:00.383Z,59.28
2023-03-29T07:28:29.269Z,59.14
2023-03-29T07:31:06.895Z,59.25
2023-03-29T07:33:38.502Z,59.41
2023-03-29T07:36:09.913Z,59.59
2023-03-29T07:38:45.725Z,59.51
2023-03-29T07:41:18.386Z,59.39
2023-03-29T07:43:51.977Z,59.38
2023-03-29T07:46:26.929Z,59.52
2023-03-29T07:48:56.935Z,59.43
2023-03-29T07:51:25.548Z,59.36
2023-03-29T07:54:00.835Z,59.28
2023-03-29T07:56:49.727Z,59.28
2023-03-29T07:59:22.470Z,59.45
2023-03-29T08:02:00.931Z,59.64
2023-03-29T08:04:33.837Z,59.65
2023-03-29T08:07:27.491Z,59.34
2023-03-29T08:10:16.108Z,59.03
2023-03-29T08:13:21.876Z,58.75
2023-03-29T08:16:09.310Z,58.76
2023-03-29T08:18:42.309Z,58.75
2023-03-29T08:21:12.915Z,58.76
2023-03-29T08:23:41.362Z,58.74
2023-03-29T08:26:22.879Z,58.76
2023-03-29T08:28:52.365Z,58.69
2023-03-29T08:31:21.217Z,58.19
2023-03-29T08:33:53.394Z,58.18
2023-03-29T08:36:47.537Z,58.65
2023-03-29T08:39:26.091Z,58.89
2023-03-29T08:42:38.328Z,58.93
2023-03-29T08:45:32.777Z,59.03
2023-03-29T08:48:13.647Z,58.92
2023-03-29T08:50:53.040Z,58.69
2023-03-29T08:53:29.533Z,58.70
2023-03-29T08:56:27.740Z,58.72
2023-03-29T08:59:18.032Z,58.73
2023-03-29T09:01:48.444Z,58.70
2023-03-29T09:04:19.085Z,58.72
2023-03-29T09:07:01.464Z,58.71
2023-03-29T09:09:37.880Z,58.74
2023-03-29T09:12:35.838Z,58.32
2023-03-29T09:15:31.989Z,58.36
2023-03-29T09:18:21.419Z,58.59
2023-03-29T09:20:54.500Z,58.62
2023-03-29T09:23:44.648Z,58.77
2023-03-29T09:26:52.898Z,58.87
2023-03-29T09:29:41.153Z,58.71
2023-03-29T09:32:55.140Z,58.54
2023-03-29T09:35:29.276Z,58.33
2023-03-29T09:37:58.405Z,58.05
2023-03-29T09:40:31.257Z,58.28
2023-03-29T09:43:07.485Z,58.24
2023-03-29T09:45:38.684Z,58.27
2023-03-29T09:48:12.642Z,58.28
2023-03-29T09:50:46.611Z,58.15
2023-03-29T09:53:15.423Z,57.98
2023-03-29T09:55:48.421Z,57.68
2023-03-29T09:58:31.147Z,57.54
2023-03-29T10:01:01.251Z,57.61
2023-03-29T10:03:33.727Z,57.77
2023-03-29T10:06:11.492Z,57.85
2023-03-29T10:08:55.877Z,57.99
2023-03-29T10:11:37.158Z,58.11
2023-03-29T10:14:11.784Z,58.12
2023-03-29T10:16:46.397Z,58.04
2023-03-29T10:19:28.324Z,57.99
2023-03-29T10:22:04.579Z,58.15
2023-03-29T10:24:34.460Z,58.16
2023-03-29T10:27:04.442Z,58.22
2023-03-29T10:29:41.237Z,59.16
2023-03-29T10:32:18.483Z,59.67
2023-03-29T10:34:48.002Z,59.53
2023-03-29T10:37:19.712Z,59.31
2023-03-29T10:39:48.541Z,59.02
2023-03-29T10:42:18.365Z,58.64
2023-03-29T10:45:00.352Z,58.36
2023-03-29T10:47:31.716Z,57.86
2023-03-29T10:49:59.985Z,57.89
2023-03-29T10:52:29.481Z,57.92
2023-03-29T10:54:59.323Z,58.04
2023-03-29T10:57:37.760Z,58.41
2023-03-29T11:00:47.951Z,58.10
2023-03-29T11:03:51.109Z,57.95
2023-03-29T11:06:41.113Z,58.13
2023-03-29T11:09:43.077Z,58.12
2023-03-29T11:12:24.280Z,57.98
2023-03-29T11:15:01.872Z,57.77
2023-03-29T11:18:07.552Z,57.81
2023-03-29T11:20:42.205Z,57.58
2023-03-29T11:23:27.650Z,57.61
2023-03-29T11:25:59.080Z,57.53
2023-03-29T11:28:28.856Z,57.23
2023-03-29T11:31:06.266Z,57.36
2023-03-29T11:33:49.364Z,57.34
2023-03-29T11:36:21.077Z,57.04
2023-03-29T11:39:28.373Z,56.92
2023-03-29T11:42:02.581Z,56.77
2023-03-29T11:44:31.533Z,56.64
2023-03-29T11:47:06.041Z,56.74
2023-03-29T11:49:42.078Z,56.72
2023-03-29T11:52:25.930Z,56.72
2023-03-29T11:54:57.438Z,56.57
2023-03-29T11:57:37.243Z,56.64
2023-03-29T12:00:19.786Z,56.16
2023-03-29T12:03:01.314Z,55.97
2023-03-29T12:05:33.390Z,56.03
2023-03-29T12:08:05.278Z,55.96
2023-03-29T12:10:42.875Z,55.77
2023-03-29T12:13:33.260Z,55.72
2023-03-29T12:16:16.707Z,55.45
2023-03-29T12:18:50.933Z,55.65
2023-03-29T12:21:21.946Z,55.65
2023-03-29T12:23:53.000Z,55.65
2023-03-29T12:26:44.948Z,55.91
2023-03-29T12:29:18.939Z,55.98
2023-03-29T12:32:14.935Z,55.76
2023-03-29T12:35:15.859Z,55.86
2023-03-29T12:38:23.040Z,55.80
2023-03-29T12:41:23.560Z,55.92
2023-03-29T12:44:14.035Z,55.77
2023-03-29T12:47:10.277Z,55.52
2023-03-29T12:49:39.122Z,55.46
2023-03-29T12:52:31.606Z,55.43
2023-03-29T12:55:01.644Z,55.69
2023-03-29T12:57:41.919Z,55.66
2023-03-29T13:00:16.092Z,55.40
2023-03-29T13:02:46.056Z,55.04
2023-03-29T13:05:34.315Z,55.01
2023-03-29T13:08:22.295Z,55.05
2023-03-29T13:10:54.659Z,54.72
2023-03-29T13:13:29.746Z,54.58
2023-03-29T13:16:12.009Z,54.73
2023-03-29T13:19:08.526Z,54.86
2023-03-29T13:22:11.399Z,55.36
2023-03-29T13:25:16.248Z,55.62
2023-03-29T13:28:19.385Z,55.77
2023-03-29T13:31:17.594Z,55.90
2023-03-29T13:33:52.206Z,55.86
2023-03-29T13:36:36.444Z,55.64
2023-03-29T13:39:07.425Z,55.61
2023-03-29T13:41:38.386Z,55.53
2023-03-29T13:44:21.991Z,55.75
2023-03-29T13:46:50.872Z,55.96
2023-03-29T13:49:25.742Z,55.96
2023-03-29T13:51:54.057Z,55.81
2023-03-29T13:54:28.858Z,55.51
2023-03-29T13:57:17.961Z,55.24
2023-03-29T14:00:13.242Z,55.04
2023-03-29T14:02:57.814Z,55.16
2023-03-29T14:05:29.590Z,55.14
2023-03-29T14:07:58.017Z,54.85
2023-03-29T14:10:39.286Z,54.73
2023-03-29T14:13:10.974Z,54.85
2023-03-29T14:15:47.716Z,54.77
2023-03-29T14:18:18.429Z,54.83
2023-03-29T14:20:46.859Z,54.93
2023-03-29T14:23:24.108Z,55.08
2023-03-29T14:25:52.421Z,54.98
2023-03-29T14:28:21.849Z,55.13
2023-03-29T14:30:52.739Z,55.10
2023-03-29T14:33:29.025Z,55.23
2023-03-29T14:35:58.443Z,55.42
2023-03-29T14:38:27.214Z,55.47
2023-03-29T14:40:59.056Z,55.36
2023-03-29T14:43:31.478Z,55.21
2023-03-29T14:46:01.593Z,55.30
2023-03-29T14:48:33.358Z,55.34
2023-03-29T14:51:01.673Z,55.50
2023-03-29T14:53:32.039Z,55.59
2023-03-29T14:56:00.221Z,55.75
2023-03-29T14:58:31.873Z,55.50
2023-03-29T15:01:08.106Z,55.55
2023-03-29T15:04:04.227Z,55.67
2023-03-29T15:06:32.730Z,55.65
2023-03-29T15:09:06.550Z,55.71
2023-03-29T15:11:36.123Z,55.70
2023-03-29T15:14:05.968Z,55.64
2023-03-29T15:16:37.813Z,55.65
2023-03-29T15:19:06.421Z,55.74
2023-03-29T15:21:36.213Z,55.84
2023-03-29T15:24:05.260Z,55.83
2023-03-29T15:26:36.121Z,55.86
2023-03-29T15:29:10.861Z,56.03
2023-03-29T15:31:40.337Z,56.09
2023-03-29T15:34:11.008Z,56.00
2023-03-29T15:36:45.274Z,55.90
2023-03-29T15:39:17.308Z,56.04
2023-03-29T15:41:46.568Z,56.22
2023-03-29T15:44:17.547Z,56.19
2023-03-29T15:46:46.114Z,56.15
2023-03-29T15:49:14.321Z,56.16
2023-03-29T15:51:44.277Z,56.17
2023-03-29T15:54:13.469Z,56.21
2023-03-29T15:57:15.024Z,55.98
2023-03-29T15:59:44.536Z,55.88
2023-03-29T16:02:14.097Z,56.06
2023-03-29T16:04:43.057Z,56.07
2023-03-29T16:07:15.704Z,56.05
2023-03-29T16:09:45.301Z,55.83
2023-03-29T16:12:13.557Z,55.84
2023-03-29T16:14:43.228Z,55.74
2023-03-29T16:17:12.512Z,55.82
2023-03-29T16:19:49.084Z,55.99
2023-03-29T16:22:17.114Z,55.78
2023-03-29T16:24:45.746Z,55.87
2023-03-29T16:27:16.794Z,56.08
2023-03-29T16:29:45.367Z,56.11
2023-03-29T16:32:13.474Z,56.13
2023-03-29T16:34:43.467Z,56.09
2023-03-29T16:37:11.445Z,56.17
2023-03-29T16:39:40.155Z,56.19
2023-03-29T16:42:09.645Z,56.33
2023-03-29T16:44:37.754Z,56.33
2023-03-29T16:47:05.985Z,56.32
2023-03-29T16:49:34.691Z,56.24
2023-03-29T16:52:08.899Z,56.31
2023-03-29T16:54:37.170Z,56.21
2023-03-29T16:57:07.189Z,56.20
2023-03-29T16:59:36.622Z,56.27
2023-03-29T17:02:04.662Z,56.31
2023-03-29T17:04:32.953Z,56.42
2023-03-29T17:07:01.715Z,56.42
2023-03-29T17:09:30.100Z,56.57
2023-03-29T17:11:58.171Z,56.73
2023-03-29T17:14:26.646Z,56.74
2023-03-29T17:16:54.690Z,56.70
2023-03-29T17:19:22.919Z,56.75
2023-03-29T17:21:51.068Z,56.86
2023-03-29T17:24:21.045Z,56.66
2023-03-29T17:26:49.219Z,56.59
2023-03-29T17:29:17.318Z,56.72
2023-03-29T17:31:49.437Z,56.88
2023-03-29T17:34:19.259Z,56.95
2023-03-29T17:36:47.563Z,56.99
2023-03-29T17:39:15.694Z,56.98
2023-03-29T17:41:43.816Z,57.12
2023-03-29T17:44:17.018Z,57.05
2023-03-29T17:46:45.463Z,57.07
2023-03-29T17:49:16.892Z,57.00
2023-03-29T17:51:44.966Z,56.98
2023-03-29T17:54:12.979Z,56.99
2023-03-29T17:56:41.642Z,56.98
2023-03-29T17:59:09.774Z,56.94
2023-03-29T18:01:40.779Z,56.96
2023-03-29T18:04:09.404Z,56.77
2023-03-29T18:06:37.615Z,56.78
2023-03-29T18:09:13.100Z,56.82
2023-03-29T18:11:43.071Z,56.84
2023-03-29T18:14:11.189Z,56.86
2023-03-29T18:16:41.654Z,56.85
2023-03-29T18:19:10.904Z,57.01
2023-03-29T18:21:39.210Z,56.99
2023-03-29T18:24:08.479Z,56.96
2023-03-29T18:26:36.565Z,57.07
2023-03-29T18:29:04.667Z,57.06
2023-03-29T18:31:33.371Z,57.03
2023-03-29T18:34:02.357Z,56.92
2023-03-29T18:36:32.252Z,56.90
2023-03-29T18:39:05.771Z,57.06
2023-03-29T18:41:37.465Z,57.20
2023-03-29T18:44:07.935Z,57.14
2023-03-29T18:46:36.397Z,57.06
2023-03-29T18:49:07.589Z,56.95
2023-03-29T18:51:35.883Z,57.05
2023-03-29T18:54:05.475Z,57.05
2023-03-29T18:56:34.295Z,57.12
2023-03-29T18:59:06.523Z,57.18
2023-03-29T19:01:35.993Z,57.24
2023-03-29T19:04:04.437Z,57.35
2023-03-29T19:06:33.609Z,57.33
2023-03-29T19:09:04.365Z,57.22
2023-03-29T19:11:33.495Z,57.02
2023-03-29T19:14:03.391Z,57.11
2023-03-29T19:16:32.561Z,57.15
2023-03-29T19:19:00.657Z,57.09
2023-03-29T19:21:31.743Z,56.97
2023-03-29T19:24:01.144Z,56.97
2023-03-29T19:26:29.609Z,56.92
2023-03-29T19:28:58.189Z,56.97
2023-03-29T19:31:27.748Z,56.99
2023-03-29T19:33:56.158Z,56.97
2023-03-29T19:36:24.732Z,56.99
2023-03-29T19:38:54.189Z,56.95
2023-03-29T19:41:22.225Z,57.04
2023-03-29T19:43:50.470Z,57.11
2023-03-29T19:46:18.931Z,57.09
2023-03-29T19:48:47.667Z,57.15
2023-03-29T19:51:16.916Z,56.99
2023-03-29T19:53:45.477Z,57.09
2023-03-29T19:56:20.296Z,57.03
2023-03-29T19:58:49.327Z,57.03
2023-03-29T20:01:20.925Z,57.03
2023-03-29T20:03:51.513Z,56.98
2023-03-29T20:06:20.574Z,57.15
2023-03-29T20:08:48.933Z,57.20
2023-03-29T20:11:23.882Z,57.20
2023-03-29T20:13:52.619Z,57.01
2023-03-29T20:16:25.730Z,57.11
2023-03-29T20:18:56.900Z,57.12
2023-03-29T20:21:24.974Z,57.13
2023-03-29T20:23:56.310Z,57.06
2023-03-29T20:26:24.803Z,57.10
2023-03-29T20:28:53.169Z,57.14
2023-03-29T20:31:21.376Z,57.08
2023-03-29T20:33:49.886Z,56.97
2023-03-29T20:36:18.770Z,56.98
2023-03-29T20:38:46.971Z,57.00
2023-03-29T20:41:15.064Z,56.86
2023-03-29T20:43:43.132Z,56.82
2023-03-29T20:46:23.066Z,56.81
2023-03-29T20:48:54.233Z,56.76
2023-03-29T20:51:30.475Z,56.84
2023-03-29T20:54:02.823Z,56.73
2023-03-29T20:56:40.093Z,56.76
2023-03-29T20:59:10.949Z,56.75
2023-03-29T21:01:41.111Z,56.68
2023-03-29T21:04:11.050Z,56.67
2023-03-29T21:06:39.877Z,56.83
2023-03-29T21:09:08.624Z,56.95
2023-03-29T21:11:41.456Z,56.79
2023-03-29T21:14:10.234Z,56.86
2023-03-29T21:16:42.530Z,56.87
2023-03-29T21:19:11.626Z,56.73
2023-03-29T21:21:41.496Z,56.72
2023-03-29T21:24:10.933Z,56.81
2023-03-29T21:26:40.726Z,56.92
2023-03-29T21:29:09.537Z,56.92
2023-03-29T21:31:40.284Z,57.04
2023-03-29T21:34:09.090Z,56.99
2023-03-29T21:36:37.159Z,56.95
2023-03-29T21:39:05.620Z,56.88
2023-03-29T21:41:33.696Z,56.91
2023-03-29T21:44:03.753Z,56.82
2023-03-29T21:46:31.984Z,56.89
2023-03-29T21:49:00.252Z,56.90
2023-03-29T21:51:28.448Z,56.97
2023-03-29T21:53:56.485Z,57.00
2023-03-29T21:56:24.492Z,57.05
2023-03-29T21:58:52.733Z,57.08
2023-03-29T22:01:21.411Z,57.12
2023-03-29T22:03:49.506Z,57.18
2023-03-29T22:06:17.780Z,57.20
2023-03-29T22:08:49.590Z,57.26
2023-03-29T22:11:17.847Z,57.23
2023-03-29T22:13:51.647Z,57.18
2023-03-29T22:16:19.911Z,57.18
2023-03-29T22:18:49.693Z,57.14
2023-03-29T22:21:19.612Z,57.15
2023-03-29T22:23:48.542Z,57.25
2023-03-29T22:26:17.635Z,57.13
2023-03-29T22:28:45.946Z,57.28
2023-03-29T22:31:15.774Z,57.25
2023-03-29T22:33:44.489Z,57.26
2023-03-29T22:36:19.797Z,57.20
2023-03-29T22:38:48.142Z,57.31
2023-03-29T22:41:18.274Z,57.29
2023-03-29T22:43:46.414Z,57.34
2023-03-29T22:46:14.949Z,57.37
2023-03-29T22:48:43.215Z,57.35
2023-03-29T22:51:11.616Z,57.38
2023-03-29T22:53:39.947Z,57.13
2023-03-29T22:56:09.556Z,56.94
2023-03-29T22:58:39.663Z,56.92
2023-03-29T23:01:08.464Z,57.00
2023-03-29T23:03:37.079Z,56.99
2023-03-29T23:06:05.610Z,56.89
2023-03-29T23:08:34.062Z,56.89
2023-03-29T23:11:03.786Z,56.78
2023-03-29T23:13:35.271Z,56.75
2023-03-29T23:16:03.841Z,56.79
2023-03-29T23:18:37.850Z,56.67
2023-03-29T23:21:07.643Z,56.47
2023-03-29T23:23:35.917Z,56.46
2023-03-29T23:26:05.040Z,56.44
2023-03-29T23:28:34.652Z,56.39
2023-03-29T23:31:09.770Z,56.31
2023-03-29T23:33:41.262Z,56.30
2023-03-29T23:36:11.426Z,56.33
2023-03-29T23:38:44.145Z,56.20
2023-03-29T23:41:13.141Z,56.26
2023-03-29T23:43:42.786Z,56.11
2023-03-29T23:46:15.713Z,56.13
2023-03-29T23:48:49.151Z,56.21
2023-03-29T23:51:28.169Z,56.09
2023-03-29T23:53:56.967Z,56.13
2023-03-29T23:56:29.252Z,56.11
2023-03-29T23:58:57.612Z,55.97
